createdAt,value
2023-03-22T00:00:17.688Z,3.16
2023-03-22T00:02:48.158Z,3.36
2023-03-22T00:05:17.266Z,3.10
2023-03-22T00:07:45.772Z,3.17
2023-03-22T00:10:14.681Z,3.14
2023-03-22T00:12:43.604Z,2.92
2023-03-22T00:15:13.027Z,3.05
2023-03-22T00:17:42.175Z,3.09
2023-03-22T00:20:13.183Z,3.20
2023-03-22T00:22:41.702Z,3.00
2023-03-22T00:25:11.164Z,3.18
2023-03-22T00:27:40.147Z,3.35
2023-03-22T00:30:10.423Z,3.38
2023-03-22T00:32:40.126Z,3.36
2023-03-22T00:35:09.758Z,3.46
2023-03-22T00:37:40.287Z,3.08
2023-03-22T00:40:13.668Z,3.22
2023-03-22T00:42:43.226Z,2.76
2023-03-22T00:45:14.122Z,2.90
2023-03-22T00:47:43.362Z,3.02
2023-03-22T00:50:12.478Z,3.01
2023-03-22T00:52:42.500Z,3.01
2023-03-22T00:55:11.827Z,3.01
2023-03-22T00:57:40.889Z,2.40
2023-03-22T01:00:13.804Z,2.38
2023-03-22T01:02:43.250Z,2.19
2023-03-22T01:05:17.923Z,2.27
2023-03-22T01:07:50.699Z,2.06
2023-03-22T01:10:20.172Z,2.06
2023-03-22T01:12:49.579Z,1.89
2023-03-22T01:15:18.806Z,2.18
2023-03-22T01:17:47.788Z,1.95
2023-03-22T01:20:16.724Z,2.14
2023-03-22T01:22:45.358Z,2.06
2023-03-22T01:25:15.829Z,2.14
2023-03-22T01:27:44.852Z,2.23
2023-03-22T01:30:14.728Z,2.17
2023-03-22T01:32:43.674Z,2.24
2023-03-22T01:35:13.254Z,2.11
2023-03-22T01:37:43.869Z,1.92
2023-03-22T01:40:15.952Z,1.80
2023-03-22T01:42:46.023Z,1.94
2023-03-22T01:45:42.581Z,2.02
2023-03-22T01:48:26.915Z,1.99
2023-03-22T01:51:05.205Z,1.95
2023-03-22T01:53:43.067Z,2.04
2023-03-22T01:56:13.849Z,2.09
2023-03-22T01:58:42.994Z,2.13
2023-03-22T02:01:13.487Z,1.98
2023-03-22T02:03:57.066Z,1.95
2023-03-22T02:06:30.027Z,2.03
2023-03-22T02:09:12.519Z,2.17
2023-03-22T02:11:45.902Z,2.10
2023-03-22T02:14:44.856Z,2.34
2023-03-22T02:17:43.455Z,2.47
2023-03-22T02:20:53.155Z,2.51
2023-03-22T02:23:44.863Z,2.43
2023-03-22T02:26:51.860Z,2.49
2023-03-22T02:29:30.204Z,2.26
2023-03-22T02:32:27.740Z,2.35
2023-03-22T02:35:25.759Z,2.22
2023-03-22T02:38:45.865Z,2.07
2023-03-22T02:41:19.930Z,2.10
2023-03-22T02:43:59.244Z,2.05
2023-03-22T02:46:32.206Z,2.11
2023-03-22T02:49:06.757Z,2.31
2023-03-22T02:51:39.996Z,2.28
2023-03-22T02:54:12.356Z,2.19
2023-03-22T02:56:47.564Z,2.35
2023-03-22T02:59:19.118Z,2.57
2023-03-22T03:01:50.108Z,2.40
2023-03-22T03:04:21.461Z,2.46
2023-03-22T03:06:52.893Z,2.51
2023-03-22T03:09:22.532Z,2.31
2023-03-22T03:11:54.778Z,2.32
2023-03-22T03:14:26.085Z,2.54
2023-03-22T03:17:08.219Z,2.33
2023-03-22T03:19:40.902Z,2.49
2023-03-22T03:22:24.174Z,2.38
2023-03-22T03:24:59.780Z,2.31
2023-03-22T03:27:33.998Z,2.15
2023-03-22T03:30:06.834Z,2.15
2023-03-22T03:32:42.166Z,2.16
2023-03-22T03:35:22.456Z,2.18
2023-03-22T03:37:53.186Z,1.65
2023-03-22T03:40:24.464Z,1.99
2023-03-22T03:42:56.124Z,2.11
2023-03-22T03:45:26.668Z,1.73
2023-03-22T03:47:59.713Z,1.73
2023-03-22T03:50:29.175Z,1.96
2023-03-22T03:52:58.736Z,1.61
2023-03-22T03:55:28.616Z,1.86
2023-03-22T03:57:58.935Z,1.68
2023-03-22T04:00:27.947Z,1.60
2023-03-22T04:03:32.600Z,1.73
2023-03-22T04:06:13.776Z,1.42
2023-03-22T04:08:53.639Z,1.50
2023-03-22T04:11:26.674Z,1.15
2023-03-22T04:14:01.538Z,1.37
2023-03-22T04:16:30.559Z,1.17
2023-03-22T04:18:59.443Z,1.22
2023-03-22T04:21:28.453Z,1.32
2023-03-22T04:24:03.020Z,1.09
2023-03-22T04:26:37.311Z,1.01
2023-03-22T04:29:24.602Z,1.22
2023-03-22T04:32:00.892Z,1.05
2023-03-22T04:34:43.117Z,0.82
2023-03-22T04:37:14.668Z,0.66
2023-03-22T04:39:54.578Z,0.97
2023-03-22T04:42:57.563Z,0.21
2023-03-22T04:45:50.854Z,0.40
2023-03-22T04:48:28.172Z,0.20
2023-03-22T04:51:04.240Z,0.21
2023-03-22T04:53:40.001Z,0.12
2023-03-22T04:56:12.833Z,0.63
2023-03-22T04:58:44.276Z,0.48
2023-03-22T05:01:17.409Z,0.49
2023-03-22T05:03:48.922Z,0.63
2023-03-22T05:06:22.985Z,0.76
2023-03-22T05:08:59.566Z,0.95
2023-03-22T05:11:28.899Z,0.33
2023-03-22T05:14:20.403Z,1.08
2023-03-22T05:16:50.809Z,1.32
2023-03-22T05:19:22.369Z,0.84
2023-03-22T05:21:58.418Z,0.81
2023-03-22T05:24:40.864Z,0.89
2023-03-22T05:27:15.093Z,1.18
2023-03-22T05:29:45.259Z,0.98
2023-03-22T05:32:25.905Z,1.41
2023-03-22T05:34:57.172Z,1.46
2023-03-22T05:37:37.018Z,1.67
2023-03-22T05:40:10.016Z,1.27
2023-03-22T05:42:43.537Z,1.20
2023-03-22T05:45:19.000Z,1.62
2023-03-22T05:47:53.824Z,1.97
2023-03-22T05:50:24.718Z,2.03
2023-03-22T05:52:53.469Z,2.34
2023-03-22T05:56:01.012Z,1.96
2023-03-22T05:58:33.963Z,2.72
2023-03-22T06:01:06.153Z,3.10
2023-03-22T06:03:51.294Z,2.84
2023-03-22T06:06:32.436Z,2.77
2023-03-22T06:09:17.530Z,3.02
2023-03-22T06:11:51.351Z,3.27
2023-03-22T06:14:20.420Z,3.40
2023-03-22T06:17:14.456Z,3.79
2023-03-22T06:19:45.195Z,4.35
2023-03-22T06:22:16.123Z,4.53
2023-03-22T06:24:46.112Z,4.08
2023-03-22T06:27:21.948Z,4.14
2023-03-22T06:29:51.168Z,4.35
2023-03-22T06:32:26.785Z,4.26
2023-03-22T06:34:58.291Z,4.23
2023-03-22T06:37:27.571Z,3.93
2023-03-22T06:39:57.715Z,4.52
2023-03-22T06:42:28.578Z,4.23
2023-03-22T06:45:08.103Z,4.63
2023-03-22T06:47:40.049Z,5.28
2023-03-22T06:50:17.681Z,5.75
2023-03-22T06:53:06.230Z,5.60
2023-03-22T06:55:37.307Z,6.42
2023-03-22T06:58:25.077Z,6.71
2023-03-22T07:00:54.192Z,7.13
2023-03-22T07:03:25.233Z,6.73
2023-03-22T07:06:05.678Z,7.01
2023-03-22T07:08:37.281Z,7.35
2023-03-22T07:11:08.453Z,7.04
2023-03-22T07:13:37.707Z,7.69
2023-03-22T07:16:12.520Z,7.41
2023-03-22T07:18:45.727Z,7.18
2023-03-22T07:21:16.876Z,7.56
2023-03-22T07:23:50.679Z,7.57
2023-03-22T07:26:21.902Z,8.13
2023-03-22T07:28:51.850Z,6.93
2023-03-22T07:31:23.323Z,7.61
2023-03-22T07:34:01.174Z,7.50
2023-03-22T07:36:35.192Z,8.90
2023-03-22T07:39:05.945Z,8.98
2023-03-22T07:41:37.897Z,9.14
2023-03-22T07:44:42.158Z,8.46
2023-03-22T07:47:30.830Z,8.77
2023-03-22T07:50:32.943Z,9.18
2023-03-22T07:53:06.230Z,9.50
2023-03-22T07:55:34.785Z,9.37
2023-03-22T07:58:03.939Z,9.72
2023-03-22T08:00:33.153Z,8.73
2023-03-22T08:03:23.375Z,9.42
2023-03-22T08:06:07.218Z,10.15
2023-03-22T08:08:38.964Z,9.55
2023-03-22T08:11:08.922Z,8.96
2023-03-22T08:13:38.128Z,9.13
2023-03-22T08:16:10.180Z,8.82
2023-03-22T08:18:39.402Z,8.50
2023-03-22T08:21:09.330Z,8.91
2023-03-22T08:23:42.078Z,9.28
2023-03-22T08:26:42.739Z,9.21
2023-03-22T08:29:18.826Z,9.09
2023-03-22T08:31:49.575Z,9.01
2023-03-22T08:34:18.521Z,9.42
2023-03-22T08:36:47.841Z,9.89
2023-03-22T08:39:18.144Z,9.87
2023-03-22T08:41:57.528Z,10.33
2023-03-22T08:44:28.697Z,10.29
2023-03-22T08:46:57.488Z,10.15
2023-03-22T08:49:27.284Z,9.62
2023-03-22T08:52:07.517Z,9.68
2023-03-22T08:54:58.055Z,9.83
2023-03-22T08:57:59.954Z,9.69
2023-03-22T09:00:52.388Z,9.25
2023-03-22T09:03:26.658Z,9.31
2023-03-22T09:05:56.489Z,9.16
2023-03-22T09:08:26.201Z,9.01
2023-03-22T09:11:04.242Z,9.00
2023-03-22T09:13:34.944Z,9.33
2023-03-22T09:16:06.625Z,8.93
2023-03-22T09:18:35.420Z,8.95
2023-03-22T09:21:12.226Z,8.51
2023-03-22T09:23:48.793Z,8.66
2023-03-22T09:26:22.978Z,8.70
2023-03-22T09:28:53.863Z,9.42
2023-03-22T09:31:23.034Z,9.35
2023-03-22T09:34:04.212Z,9.27
2023-03-22T09:36:34.399Z,9.48
2023-03-22T09:39:07.035Z,9.83
2023-03-22T09:41:42.424Z,9.85
2023-03-22T09:44:15.805Z,10.29
2023-03-22T09:46:47.972Z,9.49
2023-03-22T09:49:21.216Z,9.07
2023-03-22T09:51:51.898Z,8.80
2023-03-22T09:54:21.793Z,9.27
2023-03-22T09:56:55.927Z,10.10
2023-03-22T09:59:32.748Z,9.91
2023-03-22T10:02:04.829Z,11.10
2023-03-22T10:04:46.378Z,10.39
2023-03-22T10:07:23.032Z,10.35
2023-03-22T10:10:00.810Z,9.68
2023-03-22T10:12:33.044Z,9.50
2023-03-22T10:15:06.236Z,9.87
2023-03-22T10:17:38.138Z,9.92
2023-03-22T10:20:09.858Z,10.10
2023-03-22T10:22:41.932Z,10.47
2023-03-22T10:25:11.308Z,10.79
2023-03-22T10:27:41.678Z,11.44
2023-03-22T10:30:11.418Z,11.39
2023-03-22T10:32:56.668Z,11.48
2023-03-22T10:35:27.051Z,10.93
2023-03-22T10:37:57.289Z,11.23
2023-03-22T10:40:28.748Z,11.42
2023-03-22T10:43:03.577Z,11.73
2023-03-22T10:45:35.555Z,10.70
2023-03-22T10:48:07.341Z,10.38
2023-03-22T10:50:38.258Z,10.98
2023-03-22T10:53:08.474Z,11.32
2023-03-22T10:55:41.373Z,10.96
2023-03-22T10:58:17.197Z,10.89
2023-03-22T11:00:49.398Z,10.83
2023-03-22T11:03:29.780Z,10.54
2023-03-22T11:06:03.519Z,10.15
2023-03-22T11:08:40.635Z,11.25
2023-03-22T11:11:16.342Z,10.75
2023-03-22T11:13:52.228Z,10.89
2023-03-22T11:16:21.586Z,10.45
2023-03-22T11:18:50.778Z,10.17
2023-03-22T11:21:21.320Z,11.17
2023-03-22T11:23:56.493Z,11.41
2023-03-22T11:26:35.901Z,10.58
2023-03-22T11:29:13.994Z,9.98
2023-03-22T11:31:58.906Z,10.26
2023-03-22T11:34:30.876Z,10.69
2023-03-22T11:37:01.657Z,11.04
2023-03-22T11:39:31.143Z,10.71
2023-03-22T11:42:01.688Z,10.27
2023-03-22T11:44:34.695Z,10.18
2023-03-22T11:47:04.625Z,10.04
2023-03-22T11:49:40.517Z,10.04
2023-03-22T11:52:11.542Z,10.41
2023-03-22T11:54:42.425Z,10.61
2023-03-22T11:57:17.181Z,10.53
2023-03-22T11:59:54.858Z,10.69
2023-03-22T12:02:25.483Z,10.72
2023-03-22T12:04:57.367Z,10.50
2023-03-22T12:07:26.986Z,11.46
2023-03-22T12:10:00.520Z,11.10
2023-03-22T12:12:32.737Z,11.39
2023-03-22T12:15:06.857Z,11.48
2023-03-22T12:17:38.992Z,10.94
2023-03-22T12:20:19.398Z,10.53
2023-03-22T12:22:52.844Z,11.29
2023-03-22T12:25:23.769Z,11.26
2023-03-22T12:27:55.766Z,10.98
2023-03-22T12:30:28.611Z,11.16
2023-03-22T12:33:01.739Z,11.25
2023-03-22T12:35:33.197Z,10.75
2023-03-22T12:38:09.051Z,11.42
2023-03-22T12:40:40.255Z,11.30
2023-03-22T12:43:14.871Z,11.21
2023-03-22T12:45:49.172Z,11.71
2023-03-22T12:48:20.919Z,11.63
2023-03-22T12:50:52.596Z,11.97
2023-03-22T12:53:21.921Z,12.08
2023-03-22T12:55:51.310Z,11.81
2023-03-22T12:58:22.264Z,11.66
2023-03-22T13:00:55.174Z,11.37
2023-03-22T13:03:29.519Z,11.07
2023-03-22T13:06:03.784Z,11.88
2023-03-22T13:09:18.096Z,11.61
2023-03-22T13:11:48.827Z,11.62
2023-03-22T13:14:56.187Z,12.34
2023-03-22T13:17:45.424Z,13.10
2023-03-22T13:20:41.366Z,13.91
2023-03-22T13:23:27.622Z,14.18
2023-03-22T13:26:05.190Z,13.44
2023-03-22T13:28:38.344Z,13.93
2023-03-22T13:31:08.115Z,13.37
2023-03-22T13:33:38.972Z,13.19
2023-03-22T13:36:09.938Z,12.11
2023-03-22T13:38:42.995Z,12.66
2023-03-22T13:41:22.699Z,11.56
2023-03-22T13:43:52.652Z,11.58
2023-03-22T13:46:45.255Z,11.33
2023-03-22T13:49:34.322Z,12.15
2023-03-22T13:52:03.741Z,12.71
2023-03-22T13:54:38.843Z,12.54
2023-03-22T13:57:17.671Z,12.02
2023-03-22T14:00:11.251Z,12.07
2023-03-22T14:02:43.257Z,12.14
2023-03-22T14:05:18.066Z,12.64
2023-03-22T14:07:49.484Z,11.72
2023-03-22T14:10:21.649Z,11.63
2023-03-22T14:12:53.607Z,12.08
2023-03-22T14:15:25.078Z,12.14
2023-03-22T14:17:57.672Z,11.77
2023-03-22T14:20:32.373Z,11.84
